sensor_id;sensor_type;location;lat;lon;timestamp;temperature;humidity
14529;DHT22;7351;51.194;4.098;2023-02-24T00:00:04;17.00;99.90
14529;DHT22;7351;51.194;4.098;2023-02-24T00:02:55;17.00;99.90
14529;DHT22;7351;51.194;4.098;2023-02-24T00:05:23;17.00;99.90
14529;DHT22;7351;51.194;4.098;2023-02-24T00:07:52;17.00;99.90
14529;DHT22;7351;51.194;4.098;2023-02-24T00:10:19;17.00;99.90
14529;DHT22;7351;51.194;4.098;2023-02-24T00:12:46;17.00;99.90
14529;DHT22;7351;51.194;4.098;2023-02-24T00:15:14;16.90;99.90
14529;DHT22;7351;51.194;4.098;2023-02-24T00:17:41;16.90;99.90
14529;DHT22;7351;51.194;4.098;2023-02-24T00:20:10;17.00;99.90
14529;DHT22;7351;51.194;4.098;2023-02-24T00:22:38;17.00;99.90
14529;DHT22;7351;51.194;4.098;2023-02-24T00:25:08;17.00;99.90
14529;DHT22;7351;51.194;4.098;2023-02-24T00:27:37;16.90;99.90
14529;DHT22;7351;51.194;4.098;2023-02-24T00:30:05;16.90;99.90
14529;DHT22;7351;51.194;4.098;2023-02-24T00:32:32;16.90;99.90
14529;DHT22;7351;51.194;4.098;2023-02-24T00:35:00;16.90;99.90
14529;DHT22;7351;51.194;4.098;2023-02-24T00:37:27;16.90;99.90
14529;DHT22;7351;51.194;4.098;2023-02-24T00:39:55;16.90;99.90
14529;DHT22;7351;51.194;4.098;2023-02-24T00:42:24;16.90;99.90
14529;DHT22;7351;51.194;4.098;2023-02-24T00:44:51;16.90;99.90
14529;DHT22;7351;51.194;4.098;2023-02-24T00:47:19;16.80;99.90
14529;DHT22;7351;51.194;4.098;2023-02-24T00:49:48;16.90;99.90
14529;DHT22;7351;51.194;4.098;2023-02-24T00:52:16;16.80;99.90
14529;DHT22;7351;51.194;4.098;2023-02-24T00:54:45;16.80;99.90
14529;DHT22;7351;51.194;4.098;2023-02-24T00:57:13;16.90;99.90
14529;DHT22;7351;51.194;4.098;2023-02-24T00:59:43;16.90;99.90
14529;DHT22;7351;51.194;4.098;2023-02-24T01:02:12;16.80;99.90
14529;DHT22;7351;51.194;4.098;2023-02-24T01:04:39;16.80;99.90
14529;DHT22;7351;51.194;4.098;2023-02-24T01:07:06;16.80;99.90
14529;DHT22;7351;51.194;4.098;2023-02-24T01:09:37;16.80;99.90
14529;DHT22;7351;51.194;4.098;2023-02-24T01:12:06;16.80;99.90
14529;DHT22;7351;51.194;4.098;2023-02-24T01:14:52;16.80;99.90
14529;DHT22;7351;51.194;4.098;2023-02-24T01:17:21;16.70;99.90
14529;DHT22;7351;51.194;4.098;2023-02-24T01:19:48;16.70;99.90
14529;DHT22;7351;51.194;4.098;2023-02-24T01:22:17;16.70;99.90
14529;DHT22;7351;51.194;4.098;2023-02-24T01:24:45;16.70;99.90
14529;DHT22;7351;51.194;4.098;2023-02-24T01:27:14;16.70;99.90
14529;DHT22;7351;51.194;4.098;2023-02-24T01:29:42;16.70;99.90
14529;DHT22;7351;51.194;4.098;2023-02-24T01:32:13;16.60;99.90
14529;DHT22;7351;51.194;4.098;2023-02-24T01:34:43;16.60;99.90
14529;DHT22;7351;51.194;4.098;2023-02-24T01:37:10;16.70;99.90
14529;DHT22;7351;51.194;4.098;2023-02-24T01:39:41;16.60;99.90
14529;DHT22;7351;51.194;4.098;2023-02-24T01:42:12;16.60;99.90
14529;DHT22;7351;51.194;4.098;2023-02-24T01:45:15;16.50;99.90
14529;DHT22;7351;51.194;4.098;2023-02-24T01:47:44;16.60;99.90
14529;DHT22;7351;51.194;4.098;2023-02-24T01:50:13;16.60;99.90
14529;DHT22;7351;51.194;4.098;2023-02-24T01:52:44;16.60;99.90
14529;DHT22;7351;51.194;4.098;2023-02-24T01:55:14;16.60;99.90
14529;DHT22;7351;51.194;4.098;2023-02-24T01:57:47;16.60;99.90
14529;DHT22;7351;51.194;4.098;2023-02-24T02:00:17;16.60;99.90
14529;DHT22;7351;51.194;4.098;2023-02-24T02:03:06;16.60;99.90
14529;DHT22;7351;51.194;4.098;2023-02-24T02:05:35;16.60;99.90
14529;DHT22;7351;51.194;4.098;2023-02-24T02:08:03;16.60;99.90
14529;DHT22;7351;51.194;4.098;2023-02-24T02:10:33;16.60;99.90
14529;DHT22;7351;51.194;4.098;2023-02-24T02:13:03;16.60;99.90
14529;DHT22;7351;51.194;4.098;2023-02-24T02:15:31;16.60;99.90
14529;DHT22;7351;51.194;4.098;2023-02-24T02:18:05;16.60;99.90
14529;DHT22;7351;51.194;4.098;2023-02-24T02:21:02;16.50;99.90
14529;DHT22;7351;51.194;4.098;2023-02-24T02:23:53;16.50;99.90
14529;DHT22;7351;51.194;4.098;2023-02-24T02:29:34;16.40;99.90
14529;DHT22;7351;51.194;4.098;2023-02-24T02:32:38;16.40;99.90
14529;DHT22;7351;51.194;4.098;2023-02-24T02:35:11;16.40;99.90
14529;DHT22;7351;51.194;4.098;2023-02-24T02:37:49;16.40;99.90
14529;DHT22;7351;51.194;4.098;2023-02-24T02:40:22;16.40;99.90
14529;DHT22;7351;51.194;4.098;2023-02-24T02:42:57;16.50;99.90
14529;DHT22;7351;51.194;4.098;2023-02-24T02:45:28;16.50;99.90
14529;DHT22;7351;51.194;4.098;2023-02-24T02:48:00;16.40;99.90
14529;DHT22;7351;51.194;4.098;2023-02-24T02:50:35;16.40;99.90
14529;DHT22;7351;51.194;4.098;2023-02-24T02:53:08;16.40;99.90
14529;DHT22;7351;51.194;4.098;2023-02-24T02:55:40;16.50;99.90
14529;DHT22;7351;51.194;4.098;2023-02-24T02:58:12;16.40;99.90
14529;DHT22;7351;51.194;4.098;2023-02-24T03:00:43;16.30;99.90
14529;DHT22;7351;51.194;4.098;2023-02-24T03:03:16;16.40;99.90
14529;DHT22;7351;51.194;4.098;2023-02-24T03:05:50;16.40;99.90
14529;DHT22;7351;51.194;4.098;2023-02-24T03:08:21;16.30;99.90
14529;DHT22;7351;51.194;4.098;2023-02-24T03:10:51;16.30;99.90
14529;DHT22;7351;51.194;4.098;2023-02-24T03:13:21;16.30;99.90
14529;DHT22;7351;51.194;4.098;2023-02-24T03:15:51;16.30;99.90
14529;DHT22;7351;51.194;4.098;2023-02-24T03:18:24;16.30;99.90
14529;DHT22;7351;51.194;4.098;2023-02-24T03:21:01;16.30;99.90
14529;DHT22;7351;51.194;4.098;2023-02-24T03:23:34;16.30;99.90
14529;DHT22;7351;51.194;4.098;2023-02-24T03:26:09;16.30;99.90
14529;DHT22;7351;51.194;4.098;2023-02-24T03:28:50;16.30;99.90
14529;DHT22;7351;51.194;4.098;2023-02-24T03:31:23;16.20;99.90
14529;DHT22;7351;51.194;4.098;2023-02-24T03:33:58;16.30;99.90
14529;DHT22;7351;51.194;4.098;2023-02-24T03:36:30;16.30;99.90
14529;DHT22;7351;51.194;4.098;2023-02-24T03:38:58;16.30;99.90
14529;DHT22;7351;51.194;4.098;2023-02-24T03:41:27;16.30;99.90
14529;DHT22;7351;51.194;4.098;2023-02-24T03:43:56;16.30;99.90
14529;DHT22;7351;51.194;4.098;2023-02-24T03:46:25;16.30;99.90
14529;DHT22;7351;51.194;4.098;2023-02-24T03:49:00;16.30;99.90
14529;DHT22;7351;51.194;4.098;2023-02-24T03:51:30;16.30;99.90
14529;DHT22;7351;51.194;4.098;2023-02-24T03:54:05;16.30;99.90
14529;DHT22;7351;51.194;4.098;2023-02-24T03:56:45;16.30;99.90
14529;DHT22;7351;51.194;4.098;2023-02-24T03:59:24;16.30;99.90
14529;DHT22;7351;51.194;4.098;2023-02-24T04:01:57;16.30;99.90
14529;DHT22;7351;51.194;4.098;2023-02-24T04:04:32;16.30;99.90
14529;DHT22;7351;51.194;4.098;2023-02-24T04:07:06;16.30;99.90
14529;DHT22;7351;51.194;4.098;2023-02-24T04:09:39;16.30;99.90
14529;DHT22;7351;51.194;4.098;2023-02-24T04:12:11;16.30;99.90
14529;DHT22;7351;51.194;4.098;2023-02-24T04:14:46;16.30;99.90
14529;DHT22;7351;51.194;4.098;2023-02-24T04:17:17;16.30;99.90
14529;DHT22;7351;51.194;4.098;2023-02-24T04:19:47;16.30;99.90
14529;DHT22;7351;51.194;4.098;2023-02-24T04:22:19;16.30;99.90
14529;DHT22;7351;51.194;4.098;2023-02-24T04:24:51;16.40;99.90
14529;DHT22;7351;51.194;4.098;2023-02-24T04:27:21;16.50;99.90
14529;DHT22;7351;51.194;4.098;2023-02-24T04:29:52;16.60;99.90
14529;DHT22;7351;51.194;4.098;2023-02-24T04:32:24;16.70;99.90
14529;DHT22;7351;51.194;4.098;2023-02-24T04:34:52;16.80;99.90
14529;DHT22;7351;51.194;4.098;2023-02-24T04:37:28;16.90;99.90
14529;DHT22;7351;51.194;4.098;2023-02-24T04:39:58;17.00;99.90
14529;DHT22;7351;51.194;4.098;2023-02-24T04:42:25;17.00;99.90
14529;DHT22;7351;51.194;4.098;2023-02-24T04:44:52;17.10;99.90
14529;DHT22;7351;51.194;4.098;2023-02-24T04:47:23;17.20;99.90
14529;DHT22;7351;51.194;4.098;2023-02-24T04:49:53;17.20;99.90
14529;DHT22;7351;51.194;4.098;2023-02-24T04:52:20;17.30;99.90
14529;DHT22;7351;51.194;4.098;2023-02-24T04:54:48;17.30;99.90
14529;DHT22;7351;51.194;4.098;2023-02-24T04:57:15;17.30;99.90
14529;DHT22;7351;51.194;4.098;2023-02-24T04:59:43;17.40;99.90
14529;DHT22;7351;51.194;4.098;2023-02-24T05:02:11;17.50;99.90
14529;DHT22;7351;51.194;4.098;2023-02-24T05:04:40;17.50;99.90
14529;DHT22;7351;51.194;4.098;2023-02-24T05:07:07;17.60;99.90
14529;DHT22;7351;51.194;4.098;2023-02-24T05:09:37;17.70;99.90
14529;DHT22;7351;51.194;4.098;2023-02-24T05:12:07;17.70;99.90
14529;DHT22;7351;51.194;4.098;2023-02-24T05:14:34;17.80;99.90
14529;DHT22;7351;51.194;4.098;2023-02-24T05:17:03;17.80;99.90
14529;DHT22;7351;51.194;4.098;2023-02-24T05:19:31;17.80;99.90
14529;DHT22;7351;51.194;4.098;2023-02-24T05:22:15;17.90;99.90
14529;DHT22;7351;51.194;4.098;2023-02-24T05:24:42;17.90;99.90
14529;DHT22;7351;51.194;4.098;2023-02-24T05:27:13;17.90;99.90
14529;DHT22;7351;51.194;4.098;2023-02-24T05:29:41;18.00;99.90
14529;DHT22;7351;51.194;4.098;2023-02-24T05:32:09;18.00;99.90
14529;DHT22;7351;51.194;4.098;2023-02-24T05:34:36;18.00;99.90
14529;DHT22;7351;51.194;4.098;2023-02-24T05:37:04;18.00;99.90
14529;DHT22;7351;51.194;4.098;2023-02-24T05:39:35;18.10;99.90
14529;DHT22;7351;51.194;4.098;2023-02-24T05:42:02;18.10;99.90
14529;DHT22;7351;51.194;4.098;2023-02-24T05:44:33;18.10;99.90
14529;DHT22;7351;51.194;4.098;2023-02-24T05:47:00;18.10;99.90
14529;DHT22;7351;51.194;4.098;2023-02-24T05:49:31;18.10;99.90
14529;DHT22;7351;51.194;4.098;2023-02-24T05:52:00;18.20;99.90
14529;DHT22;7351;51.194;4.098;2023-02-24T05:54:33;18.20;99.90
14529;DHT22;7351;51.194;4.098;2023-02-24T05:57:02;18.20;99.90
14529;DHT22;7351;51.194;4.098;2023-02-24T05:59:31;18.20;99.90
14529;DHT22;7351;51.194;4.098;2023-02-24T06:02:00;18.10;99.90
14529;DHT22;7351;51.194;4.098;2023-02-24T06:04:31;18.20;99.90
14529;DHT22;7351;51.194;4.098;2023-02-24T06:07:07;18.20;99.90
14529;DHT22;7351;51.194;4.098;2023-02-24T06:09:38;18.10;99.90
14529;DHT22;7351;51.194;4.098;2023-02-24T06:12:07;18.20;99.90
14529;DHT22;7351;51.194;4.098;2023-02-24T06:14:35;18.20;99.90
14529;DHT22;7351;51.194;4.098;2023-02-24T06:17:02;18.10;99.90
14529;DHT22;7351;51.194;4.098;2023-02-24T06:19:29;18.10;99.90
14529;DHT22;7351;51.194;4.098;2023-02-24T06:21:58;18.10;99.90
14529;DHT22;7351;51.194;4.098;2023-02-24T06:24:28;18.10;99.90
14529;DHT22;7351;51.194;4.098;2023-02-24T06:26:55;18.10;99.90
14529;DHT22;7351;51.194;4.098;2023-02-24T06:29:28;18.10;99.90
14529;DHT22;7351;51.194;4.098;2023-02-24T06:31:57;18.10;99.90
14529;DHT22;7351;51.194;4.098;2023-02-24T06:34:24;18.00;99.90
14529;DHT22;7351;51.194;4.098;2023-02-24T06:36:52;18.00;99.90
14529;DHT22;7351;51.194;4.098;2023-02-24T06:39:19;18.00;99.90
14529;DHT22;7351;51.194;4.098;2023-02-24T06:41:49;18.00;99.90
14529;DHT22;7351;51.194;4.098;2023-02-24T06:44:17;18.00;99.90
14529;DHT22;7351;51.194;4.098;2023-02-24T06:46:44;18.00;99.90
14529;DHT22;7351;51.194;4.098;2023-02-24T06:49:13;18.00;99.90
14529;DHT22;7351;51.194;4.098;2023-02-24T06:51:40;18.00;99.90
14529;DHT22;7351;51.194;4.098;2023-02-24T06:54:08;18.00;99.90
14529;DHT22;7351;51.194;4.098;2023-02-24T06:56:35;18.00;99.90
14529;DHT22;7351;51.194;4.098;2023-02-24T06:59:04;18.00;99.90
14529;DHT22;7351;51.194;4.098;2023-02-24T07:01:34;18.00;99.90
14529;DHT22;7351;51.194;4.098;2023-02-24T07:04:10;18.00;99.90
14529;DHT22;7351;51.194;4.098;2023-02-24T07:06:52;18.00;99.90
14529;DHT22;7351;51.194;4.098;2023-02-24T07:09:22;18.00;99.90
14529;DHT22;7351;51.194;4.098;2023-02-24T07:11:51;17.90;99.90
14529;DHT22;7351;51.194;4.098;2023-02-24T07:14:22;17.90;99.90
14529;DHT22;7351;51.194;4.098;2023-02-24T07:16:49;17.80;99.90
14529;DHT22;7351;51.194;4.098;2023-02-24T07:19:20;17.70;99.90
14529;DHT22;7351;51.194;4.098;2023-02-24T07:21:50;17.60;99.90
14529;DHT22;7351;51.194;4.098;2023-02-24T07:24:25;17.50;99.90
14529;DHT22;7351;51.194;4.098;2023-02-24T07:26:58;17.50;99.90
14529;DHT22;7351;51.194;4.098;2023-02-24T07:29:27;17.40;99.90
14529;DHT22;7351;51.194;4.098;2023-02-24T07:31:57;17.30;99.90
14529;DHT22;7351;51.194;4.098;2023-02-24T07:34:26;17.40;99.90
14529;DHT22;7351;51.194;4.098;2023-02-24T07:36:55;17.40;99.90
14529;DHT22;7351;51.194;4.098;2023-02-24T07:39:22;17.30;99.90
14529;DHT22;7351;51.194;4.098;2023-02-24T07:41:51;17.30;99.90
14529;DHT22;7351;51.194;4.098;2023-02-24T07:44:20;17.40;99.90
14529;DHT22;7351;51.194;4.098;2023-02-24T07:46:49;17.40;99.90
14529;DHT22;7351;51.194;4.098;2023-02-24T07:49:18;17.40;99.90
14529;DHT22;7351;51.194;4.098;2023-02-24T07:51:46;17.50;99.90
14529;DHT22;7351;51.194;4.098;2023-02-24T07:54:18;17.50;99.90
14529;DHT22;7351;51.194;4.098;2023-02-24T07:56:46;17.60;99.90
14529;DHT22;7351;51.194;4.098;2023-02-24T07:59:21;17.60;99.90
14529;DHT22;7351;51.194;4.098;2023-02-24T08:01:48;17.60;99.90
14529;DHT22;7351;51.194;4.098;2023-02-24T08:04:17;17.70;99.90
14529;DHT22;7351;51.194;4.098;2023-02-24T08:06:45;17.70;99.90
14529;DHT22;7351;51.194;4.098;2023-02-24T08:09:18;17.70;99.90
14529;DHT22;7351;51.194;4.098;2023-02-24T08:11:47;17.80;99.90
14529;DHT22;7351;51.194;4.098;2023-02-24T08:14:17;17.80;99.90
14529;DHT22;7351;51.194;4.098;2023-02-24T08:16:46;17.80;99.90
14529;DHT22;7351;51.194;4.098;2023-02-24T08:19:15;17.90;99.90
14529;DHT22;7351;51.194;4.098;2023-02-24T08:21:46;17.90;99.90
14529;DHT22;7351;51.194;4.098;2023-02-24T08:24:18;17.90;99.90
14529;DHT22;7351;51.194;4.098;2023-02-24T08:26:47;18.00;99.90
14529;DHT22;7351;51.194;4.098;2023-02-24T08:29:28;18.00;99.90
14529;DHT22;7351;51.194;4.098;2023-02-24T08:31:56;18.00;99.90
14529;DHT22;7351;51.194;4.098;2023-02-24T08:34:23;18.00;99.90
14529;DHT22;7351;51.194;4.098;2023-02-24T08:36:56;18.10;99.90
14529;DHT22;7351;51.194;4.098;2023-02-24T08:39:24;18.10;99.90
14529;DHT22;7351;51.194;4.098;2023-02-24T08:41:55;18.10;99.90
14529;DHT22;7351;51.194;4.098;2023-02-24T08:44:22;18.20;99.90
14529;DHT22;7351;51.194;4.098;2023-02-24T08:46:52;18.10;99.90
14529;DHT22;7351;51.194;4.098;2023-02-24T08:49:20;18.10;99.90
14529;DHT22;7351;51.194;4.098;2023-02-24T08:51:50;18.20;99.90
14529;DHT22;7351;51.194;4.098;2023-02-24T08:54:19;18.20;99.90
14529;DHT22;7351;51.194;4.098;2023-02-24T08:56:55;18.20;99.90
14529;DHT22;7351;51.194;4.098;2023-02-24T08:59:24;18.10;99.90
14529;DHT22;7351;51.194;4.098;2023-02-24T09:02:03;18.20;99.90
14529;DHT22;7351;51.194;4.098;2023-02-24T09:04:44;18.20;99.90
14529;DHT22;7351;51.194;4.098;2023-02-24T09:07:13;18.20;99.90
14529;DHT22;7351;51.194;4.098;2023-02-24T09:09:41;18.20;99.90
14529;DHT22;7351;51.194;4.098;2023-02-24T09:12:10;18.20;99.90
14529;DHT22;7351;51.194;4.098;2023-02-24T09:14:47;18.20;99.90
14529;DHT22;7351;51.194;4.098;2023-02-24T09:17:15;18.20;99.90
14529;DHT22;7351;51.194;4.098;2023-02-24T09:19:46;18.20;99.90
14529;DHT22;7351;51.194;4.098;2023-02-24T09:22:32;18.20;99.90
14529;DHT22;7351;51.194;4.098;2023-02-24T09:25:08;18.20;99.90
14529;DHT22;7351;51.194;4.098;2023-02-24T09:27:50;18.20;99.90
14529;DHT22;7351;51.194;4.098;2023-02-24T09:30:24;18.20;99.90
14529;DHT22;7351;51.194;4.098;2023-02-24T09:33:09;18.20;99.90
14529;DHT22;7351;51.194;4.098;2023-02-24T09:35:46;18.20;99.90
14529;DHT22;7351;51.194;4.098;2023-02-24T09:38:14;18.20;99.90
14529;DHT22;7351;51.194;4.098;2023-02-24T09:40:43;18.20;99.90
14529;DHT22;7351;51.194;4.098;2023-02-24T09:43:22;18.20;99.90
14529;DHT22;7351;51.194;4.098;2023-02-24T09:45:57;18.30;99.90
14529;DHT22;7351;51.194;4.098;2023-02-24T09:48:33;18.30;99.90
14529;DHT22;7351;51.194;4.098;2023-02-24T09:51:09;18.20;99.90
14529;DHT22;7351;51.194;4.098;2023-02-24T09:53:47;18.30;99.90
14529;DHT22;7351;51.194;4.098;2023-02-24T09:56:22;18.30;99.90
14529;DHT22;7351;51.194;4.098;2023-02-24T09:58:59;18.30;99.90
14529;DHT22;7351;51.194;4.098;2023-02-24T10:01:43;18.30;99.90
14529;DHT22;7351;51.194;4.098;2023-02-24T10:07:04;18.40;99.90
14529;DHT22;7351;51.194;4.098;2023-02-24T10:09:35;18.40;99.90
14529;DHT22;7351;51.194;4.098;2023-02-24T10:12:11;18.40;99.90
14529;DHT22;7351;51.194;4.098;2023-02-24T10:14:47;18.40;99.90
14529;DHT22;7351;51.194;4.098;2023-02-24T10:17:19;18.40;99.90
14529;DHT22;7351;51.194;4.098;2023-02-24T10:19:53;18.40;99.90
14529;DHT22;7351;51.194;4.098;2023-02-24T10:22:44;18.40;99.90
14529;DHT22;7351;51.194;4.098;2023-02-24T10:25:26;18.50;99.90
14529;DHT22;7351;51.194;4.098;2023-02-24T10:28:10;18.50;99.90
14529;DHT22;7351;51.194;4.098;2023-02-24T10:30:49;18.40;99.90
14529;DHT22;7351;51.194;4.098;2023-02-24T10:33:33;18.40;99.90
14529;DHT22;7351;51.194;4.098;2023-02-24T10:36:10;18.50;99.90
14529;DHT22;7351;51.194;4.098;2023-02-24T10:38:42;18.50;99.90
14529;DHT22;7351;51.194;4.098;2023-02-24T10:41:12;18.50;99.90
14529;DHT22;7351;51.194;4.098;2023-02-24T10:43:40;18.50;99.90
14529;DHT22;7351;51.194;4.098;2023-02-24T10:46:32;18.50;99.90
14529;DHT22;7351;51.194;4.098;2023-02-24T10:49:00;18.50;99.90
14529;DHT22;7351;51.194;4.098;2023-02-24T10:51:30;18.50;99.90
14529;DHT22;7351;51.194;4.098;2023-02-24T10:54:12;18.50;99.90
14529;DHT22;7351;51.194;4.098;2023-02-24T10:57:03;18.50;99.90
14529;DHT22;7351;51.194;4.098;2023-02-24T10:59:50;18.50;99.90
14529;DHT22;7351;51.194;4.098;2023-02-24T11:02:37;18.50;99.90
14529;DHT22;7351;51.194;4.098;2023-02-24T11:05:22;18.50;99.90
14529;DHT22;7351;51.194;4.098;2023-02-24T11:08:13;18.50;99.90
14529;DHT22;7351;51.194;4.098;2023-02-24T11:11:06;18.50;99.90
14529;DHT22;7351;51.194;4.098;2023-02-24T11:13:47;18.50;99.90
14529;DHT22;7351;51.194;4.098;2023-02-24T11:16:43;18.60;99.90
14529;DHT22;7351;51.194;4.098;2023-02-24T11:19:30;18.60;99.90
14529;DHT22;7351;51.194;4.098;2023-02-24T11:21:58;18.60;99.90
14529;DHT22;7351;51.194;4.098;2023-02-24T11:24:27;18.60;99.90
14529;DHT22;7351;51.194;4.098;2023-02-24T11:26:55;18.60;99.90
14529;DHT22;7351;51.194;4.098;2023-02-24T11:29:41;18.60;99.90
14529;DHT22;7351;51.194;4.098;2023-02-24T11:32:27;18.60;99.90
14529;DHT22;7351;51.194;4.098;2023-02-24T11:35:01;18.60;99.90
14529;DHT22;7351;51.194;4.098;2023-02-24T11:37:37;18.70;99.90
14529;DHT22;7351;51.194;4.098;2023-02-24T11:40:11;18.60;99.90
14529;DHT22;7351;51.194;4.098;2023-02-24T11:42:43;18.60;99.90
14529;DHT22;7351;51.194;4.098;2023-02-24T11:45:24;18.70;99.90
14529;DHT22;7351;51.194;4.098;2023-02-24T11:47:57;18.70;99.90
14529;DHT22;7351;51.194;4.098;2023-02-24T11:50:29;18.70;99.90
14529;DHT22;7351;51.194;4.098;2023-02-24T11:53:02;18.70;99.90
14529;DHT22;7351;51.194;4.098;2023-02-24T11:55:34;18.70;99.90
14529;DHT22;7351;51.194;4.098;2023-02-24T11:58:09;18.70;99.90
14529;DHT22;7351;51.194;4.098;2023-02-24T12:00:41;18.70;99.90
14529;DHT22;7351;51.194;4.098;2023-02-24T12:03:14;18.70;99.90
14529;DHT22;7351;51.194;4.098;2023-02-24T12:05:49;18.70;99.90
14529;DHT22;7351;51.194;4.098;2023-02-24T12:08:23;18.70;99.90
14529;DHT22;7351;51.194;4.098;2023-02-24T12:10:57;18.70;99.90
14529;DHT22;7351;51.194;4.098;2023-02-24T12:13:31;18.70;99.90
14529;DHT22;7351;51.194;4.098;2023-02-24T12:16:08;18.80;99.90
14529;DHT22;7351;51.194;4.098;2023-02-24T12:18:39;18.80;99.90
14529;DHT22;7351;51.194;4.098;2023-02-24T12:21:13;18.80;99.90
14529;DHT22;7351;51.194;4.098;2023-02-24T12:23:44;18.80;99.90
14529;DHT22;7351;51.194;4.098;2023-02-24T12:26:18;18.80;99.90
14529;DHT22;7351;51.194;4.098;2023-02-24T12:29:01;18.80;99.90
14529;DHT22;7351;51.194;4.098;2023-02-24T12:31:35;18.80;99.90
14529;DHT22;7351;51.194;4.098;2023-02-24T12:34:11;18.80;99.90
14529;DHT22;7351;51.194;4.098;2023-02-24T12:36:57;18.80;99.90
14529;DHT22;7351;51.194;4.098;2023-02-24T12:39:39;18.70;99.90
14529;DHT22;7351;51.194;4.098;2023-02-24T12:42:18;18.80;99.90
14529;DHT22;7351;51.194;4.098;2023-02-24T12:44:52;18.70;99.90
14529;DHT22;7351;51.194;4.098;2023-02-24T12:47:29;18.80;99.90
14529;DHT22;7351;51.194;4.098;2023-02-24T12:50:09;18.70;99.90
14529;DHT22;7351;51.194;4.098;2023-02-24T12:52:51;18.80;99.90
14529;DHT22;7351;51.194;4.098;2023-02-24T12:55:22;18.80;99.90
14529;DHT22;7351;51.194;4.098;2023-02-24T12:57:57;18.70;99.90
14529;DHT22;7351;51.194;4.098;2023-02-24T13:00:32;18.80;99.90
14529;DHT22;7351;51.194;4.098;2023-02-24T13:03:09;18.70;99.90
14529;DHT22;7351;51.194;4.098;2023-02-24T13:05:43;18.80;99.90
14529;DHT22;7351;51.194;4.098;2023-02-24T13:08:20;18.80;99.90
14529;DHT22;7351;51.194;4.098;2023-02-24T13:11:00;18.80;99.90
14529;DHT22;7351;51.194;4.098;2023-02-24T13:13:35;18.80;99.90
14529;DHT22;7351;51.194;4.098;2023-02-24T13:16:04;18.80;99.90
14529;DHT22;7351;51.194;4.098;2023-02-24T13:18:33;18.80;99.90
14529;DHT22;7351;51.194;4.098;2023-02-24T13:21:04;18.80;99.90
14529;DHT22;7351;51.194;4.098;2023-02-24T13:23:33;18.80;99.90
14529;DHT22;7351;51.194;4.098;2023-02-24T13:26:00;18.80;99.90
14529;DHT22;7351;51.194;4.098;2023-02-24T13:28:28;18.80;99.90
14529;DHT22;7351;51.194;4.098;2023-02-24T13:30:59;18.80;99.90
14529;DHT22;7351;51.194;4.098;2023-02-24T13:33:32;18.80;99.90
14529;DHT22;7351;51.194;4.098;2023-02-24T13:36:13;18.80;99.90
14529;DHT22;7351;51.194;4.098;2023-02-24T13:38:43;18.90;99.90
14529;DHT22;7351;51.194;4.098;2023-02-24T13:41:38;18.80;99.90
14529;DHT22;7351;51.194;4.098;2023-02-24T13:44:22;18.80;99.90
14529;DHT22;7351;51.194;4.098;2023-02-24T13:46:58;18.80;99.90
14529;DHT22;7351;51.194;4.098;2023-02-24T13:49:35;18.80;99.90
14529;DHT22;7351;51.194;4.098;2023-02-24T13:52:13;18.80;99.90
14529;DHT22;7351;51.194;4.098;2023-02-24T13:55:07;18.80;99.90
14529;DHT22;7351;51.194;4.098;2023-02-24T13:57:50;18.80;99.90
14529;DHT22;7351;51.194;4.098;2023-02-24T14:00:27;18.80;99.90
14529;DHT22;7351;51.194;4.098;2023-02-24T14:02:57;18.80;99.90
14529;DHT22;7351;51.194;4.098;2023-02-24T14:05:28;18.80;99.90
14529;DHT22;7351;51.194;4.098;2023-02-24T14:07:56;18.80;99.90
14529;DHT22;7351;51.194;4.098;2023-02-24T14:10:26;18.80;99.90
14529;DHT22;7351;51.194;4.098;2023-02-24T14:13:00;18.90;99.90
14529;DHT22;7351;51.194;4.098;2023-02-24T14:15:29;18.90;99.90
14529;DHT22;7351;51.194;4.098;2023-02-24T14:17:58;18.90;99.90
14529;DHT22;7351;51.194;4.098;2023-02-24T14:20:26;18.90;99.90
14529;DHT22;7351;51.194;4.098;2023-02-24T14:22:57;18.90;99.90
14529;DHT22;7351;51.194;4.098;2023-02-24T14:25:28;18.90;99.90
14529;DHT22;7351;51.194;4.098;2023-02-24T14:27:56;18.90;99.90
14529;DHT22;7351;51.194;4.098;2023-02-24T14:30:26;18.90;99.90
14529;DHT22;7351;51.194;4.098;2023-02-24T14:32:55;18.90;99.90
14529;DHT22;7351;51.194;4.098;2023-02-24T14:35:27;18.90;99.90
14529;DHT22;7351;51.194;4.098;2023-02-24T14:37:57;18.90;99.90
14529;DHT22;7351;51.194;4.098;2023-02-24T14:40:25;18.90;99.90
14529;DHT22;7351;51.194;4.098;2023-02-24T14:42:53;18.90;99.90
14529;DHT22;7351;51.194;4.098;2023-02-24T14:45:24;18.90;99.90
14529;DHT22;7351;51.194;4.098;2023-02-24T14:47:52;18.90;99.90
14529;DHT22;7351;51.194;4.098;2023-02-24T14:50:22;18.90;99.90
14529;DHT22;7351;51.194;4.098;2023-02-24T14:52:53;18.90;99.90
14529;DHT22;7351;51.194;4.098;2023-02-24T14:55:23;18.90;99.90
14529;DHT22;7351;51.194;4.098;2023-02-24T14:57:56;18.90;99.90
14529;DHT22;7351;51.194;4.098;2023-02-24T15:00:27;18.90;99.90
14529;DHT22;7351;51.194;4.098;2023-02-24T15:03:03;18.80;99.90
14529;DHT22;7351;51.194;4.098;2023-02-24T15:05:31;18.90;99.90
14529;DHT22;7351;51.194;4.098;2023-02-24T15:08:00;18.90;99.90
14529;DHT22;7351;51.194;4.098;2023-02-24T15:10:29;18.90;99.90
14529;DHT22;7351;51.194;4.098;2023-02-24T15:13:09;18.90;99.90
14529;DHT22;7351;51.194;4.098;2023-02-24T15:15:37;18.90;99.90
14529;DHT22;7351;51.194;4.098;2023-02-24T15:18:09;18.90;99.90
14529;DHT22;7351;51.194;4.098;2023-02-24T15:20:39;18.90;99.90
14529;DHT22;7351;51.194;4.098;2023-02-24T15:23:24;18.90;99.90
14529;DHT22;7351;51.194;4.098;2023-02-24T15:25:52;19.00;99.90
14529;DHT22;7351;51.194;4.098;2023-02-24T15:28:26;19.00;99.90
14529;DHT22;7351;51.194;4.098;2023-02-24T15:31:01;19.00;99.90
14529;DHT22;7351;51.194;4.098;2023-02-24T15:33:33;19.00;99.90
14529;DHT22;7351;51.194;4.098;2023-02-24T15:36:05;19.00;99.90
14529;DHT22;7351;51.194;4.098;2023-02-24T15:38:36;19.00;99.90
14529;DHT22;7351;51.194;4.098;2023-02-24T15:41:05;19.00;99.90
14529;DHT22;7351;51.194;4.098;2023-02-24T15:43:36;19.00;99.90
14529;DHT22;7351;51.194;4.098;2023-02-24T15:46:22;19.00;99.90
14529;DHT22;7351;51.194;4.098;2023-02-24T15:48:51;19.00;99.90
14529;DHT22;7351;51.194;4.098;2023-02-24T15:51:24;19.00;99.90
14529;DHT22;7351;51.194;4.098;2023-02-24T15:53:52;19.00;99.90
14529;DHT22;7351;51.194;4.098;2023-02-24T15:56:19;19.00;99.90
14529;DHT22;7351;51.194;4.098;2023-02-24T15:58:48;19.00;99.90
14529;DHT22;7351;51.194;4.098;2023-02-24T16:01:15;19.00;99.90
14529;DHT22;7351;51.194;4.098;2023-02-24T16:03:42;19.00;99.90
14529;DHT22;7351;51.194;4.098;2023-02-24T16:06:13;19.00;99.90
14529;DHT22;7351;51.194;4.098;2023-02-24T16:08:43;19.00;99.90
14529;DHT22;7351;51.194;4.098;2023-02-24T16:11:11;19.00;99.90
14529;DHT22;7351;51.194;4.098;2023-02-24T16:13:39;19.00;99.90
14529;DHT22;7351;51.194;4.098;2023-02-24T16:16:11;19.00;99.90
14529;DHT22;7351;51.194;4.098;2023-02-24T16:18:39;19.00;99.90
14529;DHT22;7351;51.194;4.098;2023-02-24T16:21:06;19.00;99.90
14529;DHT22;7351;51.194;4.098;2023-02-24T16:23:33;19.00;99.90